Time;durP1;ratioP1;P1;durP2;ratioP2;P2;SDS_P1;SDS_P2;PMS_P1;PMS_P2;Temp;Humidity;BMP_temperature;BMP_pressure;BME280_temperature;BME280_humidity;BME280_pressure;Samples;Min_cycle;Max_cycle;Signal;HPM_P1;HPM_P2
2023/04/15 00:01:07;;;;;;;7.28;2.22;;;11.10;99.90;;;;;;5050608;28;20550;-39
2023/04/15 00:03:33;;;;;;;6.35;2.17;;;11.10;99.90;;;;;;5050589;28;20040;-39
2023/04/15 00:05:58;;;;;;;3.58;1.73;;;11.10;99.90;;;;;;5050384;28;20017;-38
2023/04/15 00:08:24;;;;;;;4.35;2.10;;;11.10;99.90;;;;;;5050752;28;20028;-39
2023/04/15 00:10:50;;;;;;;4.32;1.75;;;11.10;99.90;;;;;;5050939;28;20104;-38
2023/04/15 00:13:15;;;;;;;5.40;2.13;;;11.00;99.90;;;;;;5050587;28;20156;-39
2023/04/15 00:15:42;;;;;;;6.78;2.17;;;11.00;99.90;;;;;;5050248;28;20032;-39
2023/04/15 00:18:07;;;;;;;4.65;1.83;;;11.10;99.90;;;;;;5051271;28;20104;-39
2023/04/15 00:20:34;;;;;;;3.58;1.75;;;11.00;99.90;;;;;;5050631;28;20175;-36
2023/04/15 00:23:01;;;;;;;5.47;2.13;;;11.00;99.90;;;;;;5051378;28;20425;-36
2023/04/15 00:25:27;;;;;;;4.88;2.10;;;11.00;99.90;;;;;;5050531;28;20092;-37
2023/04/15 00:27:53;;;;;;;4.22;1.77;;;11.00;99.90;;;;;;5050040;28;20065;-36
2023/04/15 00:30:19;;;;;;;6.53;2.28;;;11.00;99.90;;;;;;5050343;28;20552;-36
2023/04/15 00:32:45;;;;;;;5.60;1.90;;;11.00;99.90;;;;;;5050488;28;20167;-36
2023/04/15 00:35:11;;;;;;;3.42;1.77;;;11.00;99.90;;;;;;5050305;28;20096;-36
2023/04/15 00:37:37;;;;;;;6.68;2.55;;;11.00;99.90;;;;;;5049833;28;20116;-37
2023/04/15 00:40:05;;;;;;;4.10;1.88;;;11.00;99.90;;;;;;5050502;28;20029;-36
2023/04/15 00:42:31;;;;;;;4.82;1.85;;;11.00;99.90;;;;;;5050917;28;20094;-34
2023/04/15 00:44:56;;;;;;;4.05;1.70;;;11.00;99.90;;;;;;5053526;28;20025;-35
2023/04/15 00:47:22;;;;;;;4.43;1.40;;;11.00;99.90;;;;;;5053392;28;20112;-35
2023/04/15 00:49:47;;;;;;;4.75;1.70;;;11.00;99.90;;;;;;5053844;28;20509;-36
2023/04/15 00:52:13;;;;;;;4.70;1.90;;;11.00;99.90;;;;;;5053808;28;20031;-36
2023/04/15 00:54:39;;;;;;;5.82;1.80;;;11.00;99.90;;;;;;5053749;28;20021;-35
2023/04/15 00:57:06;;;;;;;5.85;2.00;;;10.90;99.90;;;;;;5053326;28;20025;-35
2023/04/15 00:59:32;;;;;;;8.68;2.05;;;11.00;99.90;;;;;;5053598;28;20017;-39
2023/04/15 01:01:58;;;;;;;3.33;1.98;;;10.90;99.90;;;;;;5053573;28;20075;-34
2023/04/15 01:04:24;;;;;;;5.90;2.10;;;10.90;99.90;;;;;;5053963;28;20065;-35
2023/04/15 01:06:50;;;;;;;3.75;1.73;;;10.90;99.90;;;;;;5053100;28;20479;-36
2023/04/15 01:09:17;;;;;;;3.88;1.90;;;10.90;99.90;;;;;;5053572;28;20029;-35
2023/04/15 01:11:43;;;;;;;2.85;1.63;;;10.90;99.90;;;;;;5053396;28;20064;-36
2023/04/15 01:14:10;;;;;;;4.78;1.83;;;10.90;99.90;;;;;;5053410;28;20425;-34
2023/04/15 01:16:38;;;;;;;3.13;1.75;;;10.90;99.90;;;;;;5052807;28;20020;-35
2023/04/15 01:19:07;;;;;;;5.55;1.73;;;10.90;99.90;;;;;;5053319;28;20163;-39
2023/04/15 01:21:36;;;;;;;5.22;1.75;;;10.90;99.90;;;;;;5053547;28;20032;-35
2023/04/15 01:24:07;;;;;;;5.65;1.90;;;10.90;99.90;;;;;;5054125;28;20634;-38
2023/04/15 01:26:33;;;;;;;5.25;1.65;;;10.90;99.90;;;;;;5052728;28;20025;-35
2023/04/15 01:28:59;;;;;;;4.55;1.80;;;10.90;99.90;;;;;;5053802;28;20499;-36
2023/04/15 01:31:24;;;;;;;6.03;1.92;;;10.90;99.90;;;;;;5052992;28;20029;-35
2023/04/15 01:33:50;;;;;;;6.10;1.90;;;10.90;99.90;;;;;;5053277;28;20099;-35
2023/04/15 01:36:16;;;;;;;3.53;1.80;;;10.90;99.90;;;;;;5053775;28;20029;-35
2023/04/15 01:38:42;;;;;;;3.55;1.60;;;10.90;99.90;;;;;;5053703;28;20068;-35
2023/04/15 01:41:07;;;;;;;4.05;1.60;;;10.90;99.90;;;;;;5052717;28;20039;-38
2023/04/15 01:43:36;;;;;;;4.45;1.88;;;10.80;99.90;;;;;;5051998;28;20399;-37
2023/04/15 01:46:02;;;;;;;4.78;1.42;;;10.80;99.90;;;;;;5053885;28;20483;-36
2023/04/15 01:48:28;;;;;;;4.88;2.03;;;10.80;99.90;;;;;;5054791;28;20031;-37
2023/04/15 01:50:56;;;;;;;5.20;1.88;;;10.80;99.90;;;;;;5054463;28;20096;-37
2023/04/15 01:53:24;;;;;;;5.15;1.80;;;10.80;99.90;;;;;;5054671;28;20048;-35
2023/04/15 01:55:50;;;;;;;3.97;1.70;;;10.80;99.90;;;;;;5053314;28;20032;-37
2023/04/15 01:58:17;;;;;;;4.95;1.58;;;10.80;99.90;;;;;;5054579;28;20470;-39
2023/04/15 02:00:42;;;;;;;5.55;2.20;;;10.80;99.90;;;;;;5053974;28;20462;-37
2023/04/15 02:03:08;;;;;;;4.47;1.90;;;10.80;99.90;;;;;;5054105;28;20037;-38
2023/04/15 02:05:34;;;;;;;5.65;2.10;;;10.80;99.90;;;;;;5054678;28;20033;-37
2023/04/15 02:08:00;;;;;;;5.13;2.10;;;10.80;99.90;;;;;;5052569;28;20033;-38
2023/04/15 02:10:26;;;;;;;3.63;1.70;;;10.80;99.90;;;;;;5053188;28;20024;-37
2023/04/15 02:12:53;;;;;;;6.45;1.90;;;10.80;99.90;;;;;;5054195;28;20032;-36
2023/04/15 02:15:19;;;;;;;5.03;1.95;;;10.80;99.90;;;;;;5053205;28;20078;-38
2023/04/15 02:17:49;;;;;;;3.92;1.70;;;10.80;99.90;;;;;;5052594;28;20417;-37
2023/04/15 02:20:15;;;;;;;3.45;1.70;;;10.80;99.90;;;;;;5053107;28;20029;-36
2023/04/15 02:22:41;;;;;;;3.08;1.73;;;10.80;99.90;;;;;;5052186;28;20017;-37
2023/04/15 02:25:07;;;;;;;5.72;1.70;;;10.80;99.90;;;;;;5053972;28;20095;-36
2023/04/15 02:27:35;;;;;;;6.57;1.98;;;10.80;99.90;;;;;;5053092;28;20139;-37
2023/04/15 02:30:00;;;;;;;3.88;1.90;;;10.80;99.90;;;;;;5053318;28;20024;-36
2023/04/15 02:32:27;;;;;;;3.83;1.83;;;10.80;99.90;;;;;;5052724;28;20120;-35
2023/04/15 02:34:53;;;;;;;4.60;2.05;;;10.80;99.90;;;;;;5051790;28;20017;-37
2023/04/15 02:37:19;;;;;;;5.22;1.90;;;10.80;99.90;;;;;;5052190;28;20437;-37
2023/04/15 02:39:45;;;;;;;5.05;1.70;;;10.70;99.90;;;;;;5053774;28;20028;-37
2023/04/15 02:42:12;;;;;;;3.53;1.75;;;10.70;99.90;;;;;;5053946;28;20398;-39
2023/04/15 02:44:37;;;;;;;3.42;1.80;;;10.70;99.90;;;;;;5054442;28;20043;-37
2023/04/15 02:47:05;;;;;;;4.63;2.00;;;10.70;99.90;;;;;;5052006;28;20104;-36
2023/04/15 02:49:31;;;;;;;4.38;1.70;;;10.70;99.90;;;;;;5053479;28;20032;-36
2023/04/15 02:51:57;;;;;;;3.47;1.70;;;10.70;99.90;;;;;;5053262;28;20025;-39
2023/04/15 02:54:23;;;;;;;3.88;1.80;;;10.70;99.90;;;;;;5052995;28;20036;-39
2023/04/15 02:56:49;;;;;;;2.60;1.38;;;10.70;99.90;;;;;;5052699;28;20032;-38
2023/04/15 02:59:15;;;;;;;4.78;1.85;;;10.70;99.90;;;;;;5053575;28;20024;-39
2023/04/15 03:01:41;;;;;;;4.00;1.92;;;10.70;99.90;;;;;;5053103;28;20025;-36
2023/04/15 03:04:07;;;;;;;3.25;1.70;;;10.70;99.90;;;;;;5051828;28;20410;-39
2023/04/15 03:06:34;;;;;;;4.45;1.90;;;10.70;99.90;;;;;;5052969;28;20025;-35
2023/04/15 03:09:01;;;;;;;5.30;1.60;;;10.70;99.90;;;;;;5053912;28;20036;-37
2023/04/15 03:11:27;;;;;;;3.13;1.75;;;10.60;99.90;;;;;;5051726;28;20096;-38
2023/04/15 03:13:53;;;;;;;6.10;1.80;;;10.60;99.90;;;;;;5053426;28;20025;-34
2023/04/15 03:16:19;;;;;;;4.82;1.65;;;10.60;99.90;;;;;;5052367;28;20024;-38
2023/04/15 03:18:44;;;;;;;3.42;1.88;;;10.70;99.90;;;;;;5053513;28;20096;-37
2023/04/15 03:21:10;;;;;;;3.53;1.55;;;10.70;99.90;;;;;;5052956;28;20028;-36
2023/04/15 03:23:36;;;;;;;4.57;2.08;;;10.70;99.90;;;;;;5053274;28;20527;-37
2023/04/15 03:26:02;;;;;;;5.65;1.90;;;10.60;99.90;;;;;;5051293;28;20099;-37
2023/04/15 03:28:28;;;;;;;4.18;1.60;;;10.70;99.90;;;;;;5051967;28;20039;-39
2023/04/15 03:30:54;;;;;;;5.43;2.10;;;10.70;99.90;;;;;;5052695;28;20363;-35
2023/04/15 03:33:20;;;;;;;4.93;2.00;;;10.60;99.90;;;;;;5052847;28;20021;-36
2023/04/15 03:35:46;;;;;;;4.45;1.73;;;10.70;99.90;;;;;;5051940;28;20108;-37
2023/04/15 03:38:11;;;;;;;5.25;1.50;;;10.60;99.90;;;;;;5050656;28;20025;-38
2023/04/15 03:40:40;;;;;;;5.15;1.85;;;10.60;99.90;;;;;;5052289;28;20027;-37
2023/04/15 03:43:05;;;;;;;5.72;1.80;;;10.60;99.90;;;;;;5050111;28;20400;-37
2023/04/15 03:45:31;;;;;;;2.70;1.50;;;10.60;99.90;;;;;;5050999;28;20037;-35
2023/04/15 03:47:57;;;;;;;5.32;1.55;;;10.60;99.90;;;;;;5050414;28;20033;-35
2023/04/15 03:50:22;;;;;;;3.05;1.52;;;10.60;99.90;;;;;;5050816;28;20032;-35
2023/04/15 03:52:48;;;;;;;3.95;1.55;;;10.60;99.90;;;;;;5050484;28;20021;-37
2023/04/15 03:55:14;;;;;;;4.68;1.60;;;10.60;99.90;;;;;;5050842;28;20021;-35
2023/04/15 03:57:40;;;;;;;4.38;2.10;;;10.60;99.90;;;;;;5050195;28;20538;-37
2023/04/15 04:00:08;;;;;;;4.82;1.38;;;10.60;99.90;;;;;;5050722;28;20025;-35
2023/04/15 04:02:33;;;;;;;3.90;1.55;;;10.60;99.90;;;;;;5050582;28;20037;-35
2023/04/15 04:04:59;;;;;;;2.92;1.45;;;10.60;99.90;;;;;;5050626;28;20052;-35
2023/04/15 04:07:25;;;;;;;4.57;1.80;;;10.60;99.90;;;;;;5050053;28;20048;-35
2023/04/15 04:09:51;;;;;;;5.35;1.77;;;10.60;99.90;;;;;;5050874;28;20028;-38
2023/04/15 04:12:16;;;;;;;5.95;1.73;;;10.60;99.90;;;;;;5050571;28;20028;-35
2023/04/15 04:14:42;;;;;;;4.47;1.40;;;10.50;99.90;;;;;;5050577;28;20188;-38
2023/04/15 04:17:08;;;;;;;3.28;1.58;;;10.60;99.90;;;;;;5051268;28;20025;-35
2023/04/15 04:19:34;;;;;;;5.60;2.00;;;10.60;99.90;;;;;;5054185;28;20021;-36
2023/04/15 04:22:00;;;;;;;3.70;1.63;;;10.60;99.90;;;;;;5054266;28;20025;-35
2023/04/15 04:24:25;;;;;;;5.80;2.00;;;10.60;99.90;;;;;;5054416;28;20516;-35
2023/04/15 04:26:51;;;;;;;4.20;1.67;;;10.50;99.90;;;;;;5053758;28;20111;-38
2023/04/15 04:29:17;;;;;;;3.63;1.63;;;10.50;99.90;;;;;;5054325;28;20086;-36
2023/04/15 04:31:42;;;;;;;3.72;1.38;;;10.50;99.90;;;;;;5054194;28;20033;-38
2023/04/15 04:34:08;;;;;;;5.85;1.60;;;10.50;99.90;;;;;;5054238;28;20368;-35
2023/04/15 04:36:33;;;;;;;3.75;1.50;;;10.50;99.90;;;;;;5053443;28;20029;-38
2023/04/15 04:39:00;;;;;;;3.53;1.65;;;10.50;99.90;;;;;;5055024;28;20056;-35
2023/04/15 04:41:25;;;;;;;4.55;1.80;;;10.50;99.90;;;;;;5055026;28;20447;-40
2023/04/15 04:43:51;;;;;;;3.25;1.60;;;10.50;99.90;;;;;;5053456;28;20104;-37
2023/04/15 04:46:17;;;;;;;3.55;1.80;;;10.50;99.90;;;;;;5054665;28;20517;-37
2023/04/15 04:48:42;;;;;;;3.13;1.65;;;10.50;99.90;;;;;;5055728;28;20075;-38
2023/04/15 04:51:08;;;;;;;6.15;1.70;;;10.50;99.90;;;;;;5055605;28;20037;-38
2023/04/15 04:53:36;;;;;;;3.38;1.80;;;10.50;99.90;;;;;;5055112;28;20100;-39
2023/04/15 04:56:02;;;;;;;7.22;1.77;;;10.50;99.90;;;;;;5054086;28;20032;-36
2023/04/15 04:58:27;;;;;;;4.88;1.65;;;10.50;99.90;;;;;;5054294;28;20029;-38
2023/04/15 05:00:53;;;;;;;4.10;1.70;;;10.50;99.90;;;;;;5055442;28;20031;-36
2023/04/15 05:03:19;;;;;;;5.13;1.75;;;10.50;99.90;;;;;;5055162;28;20115;-36
2023/04/15 05:05:45;;;;;;;3.97;1.73;;;10.40;99.90;;;;;;5055466;28;20068;-36
2023/04/15 05:08:10;;;;;;;8.57;1.88;;;10.50;99.90;;;;;;5054881;28;20021;-37
2023/04/15 05:10:36;;;;;;;3.22;1.80;;;10.50;99.90;;;;;;5055298;28;20040;-39
2023/04/15 05:13:02;;;;;;;5.88;1.80;;;10.50;99.90;;;;;;5055256;28;20104;-37
2023/04/15 05:15:28;;;;;;;3.67;1.88;;;10.40;99.90;;;;;;5055945;28;20017;-42
2023/04/15 05:17:54;;;;;;;3.65;2.10;;;10.40;99.90;;;;;;5054963;28;20143;-36
2023/04/15 05:20:19;;;;;;;6.95;2.00;;;10.40;99.90;;;;;;5054451;28;20071;-37
2023/04/15 05:22:45;;;;;;;5.35;1.70;;;10.40;99.90;;;;;;5054002;28;20048;-37
2023/04/15 05:25:11;;;;;;;5.53;1.90;;;10.40;99.90;;;;;;5053804;28;20400;-37
2023/04/15 05:27:36;;;;;;;5.90;1.70;;;10.40;99.90;;;;;;5053315;28;20021;-39
2023/04/15 05:30:03;;;;;;;3.65;1.45;;;10.40;99.90;;;;;;5051956;28;20471;-36
2023/04/15 05:32:28;;;;;;;2.95;1.40;;;10.40;99.90;;;;;;5054474;28;20025;-37
2023/04/15 05:34:54;;;;;;;3.50;1.65;;;10.40;99.90;;;;;;5051914;28;20036;-37
2023/04/15 05:37:21;;;;;;;5.25;1.50;;;10.40;99.90;;;;;;5053841;28;20486;-38
2023/04/15 05:39:47;;;;;;;6.18;1.88;;;10.40;99.90;;;;;;5054439;28;20020;-37
2023/04/15 05:42:13;;;;;;;6.03;1.90;;;10.40;99.90;;;;;;5053271;28;20021;-38
2023/04/15 05:44:38;;;;;;;3.35;1.70;;;10.40;99.90;;;;;;5052874;28;20139;-36
2023/04/15 05:47:04;;;;;;;5.40;2.25;;;10.40;99.90;;;;;;5052659;28;20479;-38
2023/04/15 05:49:30;;;;;;;6.25;2.60;;;10.40;99.90;;;;;;5052826;28;20104;-38
2023/04/15 05:51:56;;;;;;;5.85;3.00;;;10.40;99.90;;;;;;5054504;28;20492;-38
2023/04/15 05:54:22;;;;;;;4.07;2.10;;;10.40;99.90;;;;;;5055481;28;20096;-38
2023/04/15 05:56:48;;;;;;;4.88;1.95;;;10.40;99.90;;;;;;5054563;28;20032;-35
2023/04/15 05:59:14;;;;;;;7.35;2.35;;;10.40;99.90;;;;;;5054589;28;20474;-37
2023/04/15 06:01:40;;;;;;;6.55;2.08;;;10.40;99.90;;;;;;5053902;28;20021;-35
2023/04/15 06:04:06;;;;;;;4.00;2.50;;;10.40;99.90;;;;;;5055468;28;20035;-37
2023/04/15 06:06:32;;;;;;;4.45;2.17;;;10.50;99.90;;;;;;5052781;28;20380;-36
2023/04/15 06:08:57;;;;;;;5.85;2.13;;;10.50;99.90;;;;;;5052882;28;20032;-37
2023/04/15 06:11:23;;;;;;;3.90;1.90;;;10.50;99.90;;;;;;5053756;28;20025;-38
2023/04/15 06:13:49;;;;;;;4.47;2.10;;;10.50;99.90;;;;;;5052655;28;20025;-35
2023/04/15 06:16:15;;;;;;;4.43;1.95;;;10.50;99.90;;;;;;5052790;28;20028;-35
2023/04/15 06:18:40;;;;;;;8.88;2.30;;;10.50;99.90;;;;;;5054219;28;20083;-36
2023/04/15 06:21:06;;;;;;;6.13;1.90;;;10.40;99.90;;;;;;5052815;28;20106;-38
2023/04/15 06:23:35;;;;;;;4.05;1.92;;;10.50;99.90;;;;;;5053114;28;20024;-37
2023/04/15 06:26:02;;;;;;;5.72;2.40;;;10.50;99.90;;;;;;5051627;28;20035;-37
2023/04/15 06:28:28;;;;;;;4.20;1.90;;;10.50;99.90;;;;;;5052362;28;20025;-38
2023/04/15 06:30:54;;;;;;;3.25;1.70;;;10.50;99.90;;;;;;5051969;28;20364;-36
2023/04/15 06:33:20;;;;;;;3.97;2.00;;;10.50;99.90;;;;;;5053997;28;20024;-38
2023/04/15 06:35:46;;;;;;;4.35;2.40;;;10.50;99.90;;;;;;5052192;28;20029;-36
2023/04/15 06:38:12;;;;;;;3.50;1.88;;;10.60;99.90;;;;;;5052352;28;20464;-35
2023/04/15 06:40:37;;;;;;;6.75;2.17;;;10.60;99.90;;;;;;5052753;28;20036;-36
2023/04/15 06:43:03;;;;;;;4.50;1.92;;;10.60;99.90;;;;;;5051793;28;20391;-39
2023/04/15 06:45:30;;;;;;;3.75;1.80;;;10.60;99.90;;;;;;5052945;28;20484;-37
2023/04/15 06:47:56;;;;;;;3.53;2.10;;;10.60;99.90;;;;;;5051754;28;20086;-36
2023/04/15 06:50:21;;;;;;;3.85;2.00;;;10.60;99.90;;;;;;5053965;28;20024;-35
2023/04/15 06:52:47;;;;;;;5.47;2.33;;;10.60;99.90;;;;;;5053851;28;20035;-38
2023/04/15 06:55:13;;;;;;;3.28;1.90;;;10.60;99.90;;;;;;5051706;28;20033;-37
2023/04/15 06:57:39;;;;;;;3.17;1.75;;;10.60;99.90;;;;;;5054260;28;20360;-37
2023/04/15 07:00:06;;;;;;;3.75;1.63;;;10.60;99.90;;;;;;5053009;28;20028;-37
2023/04/15 07:02:33;;;;;;;2.65;1.73;;;10.70;99.90;;;;;;5053394;28;20056;-34
2023/04/15 07:04:58;;;;;;;5.53;1.90;;;10.70;99.90;;;;;;5052190;28;20689;-35
2023/04/15 07:07:24;;;;;;;3.80;1.70;;;10.70;99.90;;;;;;5051933;28;20044;-35
2023/04/15 07:09:52;;;;;;;4.55;2.00;;;10.70;99.90;;;;;;5051728;28;20033;-38
2023/04/15 07:12:18;;;;;;;5.50;1.95;;;10.70;99.90;;;;;;5051237;28;20429;-35
2023/04/15 07:14:43;;;;;;;4.75;2.20;;;10.80;99.90;;;;;;5052304;28;20031;-38
2023/04/15 07:17:09;;;;;;;7.97;1.90;;;10.80;99.90;;;;;;5051943;28;20483;-39
2023/04/15 07:19:35;;;;;;;4.30;1.83;;;10.80;99.90;;;;;;5051529;28;20028;-39
2023/04/15 07:22:01;;;;;;;5.93;2.00;;;10.80;99.90;;;;;;5050955;28;20033;-36
2023/04/15 07:24:26;;;;;;;4.80;2.00;;;10.90;99.90;;;;;;5052075;28;20087;-36
2023/04/15 07:26:56;;;;;;;4.22;1.55;;;10.90;99.90;;;;;;5050413;28;20438;-36
2023/04/15 07:29:22;;;;;;;4.45;2.22;;;10.90;99.90;;;;;;5050978;28;20021;-38
2023/04/15 07:31:47;;;;;;;5.43;2.00;;;10.90;99.90;;;;;;5050885;28;20025;-35
2023/04/15 07:34:13;;;;;;;2.53;1.50;;;11.00;99.90;;;;;;5051828;28;20024;-35
2023/04/15 07:36:39;;;;;;;5.50;1.92;;;11.00;99.90;;;;;;5052521;28;20028;-36
2023/04/15 07:39:05;;;;;;;2.90;1.45;;;11.00;99.90;;;;;;5051329;28;20404;-40
2023/04/15 07:41:31;;;;;;;3.05;1.55;;;11.00;99.90;;;;;;5052367;28;20029;-35
2023/04/15 07:43:56;;;;;;;3.53;1.65;;;11.00;99.90;;;;;;5051764;28;20039;-37
2023/04/15 07:46:23;;;;;;;2.88;1.55;;;11.00;99.90;;;;;;5052697;28;20033;-36
2023/04/15 07:48:49;;;;;;;3.67;1.80;;;11.10;99.90;;;;;;5051214;28;20497;-38
2023/04/15 07:51:16;;;;;;;4.43;1.70;;;11.10;99.90;;;;;;5051957;28;20032;-39
2023/04/15 07:53:43;;;;;;;3.15;1.60;;;11.10;99.90;;;;;;5054167;28;20100;-36
2023/04/15 07:56:09;;;;;;;2.45;1.50;;;11.10;99.90;;;;;;5056771;28;20067;-39
2023/04/15 07:58:34;;;;;;;2.42;1.50;;;11.20;99.90;;;;;;5055840;28;20053;-35
2023/04/15 08:01:00;;;;;;;4.43;1.55;;;11.20;99.90;;;;;;5057420;28;20021;-35
2023/04/15 08:03:26;;;;;;;3.47;1.58;;;11.20;99.90;;;;;;5054982;28;20039;-37
2023/04/15 08:05:53;;;;;;;3.33;1.52;;;11.20;99.90;;;;;;5054743;28;20489;-35
2023/04/15 08:08:18;;;;;;;3.75;1.33;;;11.20;99.90;;;;;;5057079;28;20113;-37
2023/04/15 08:10:44;;;;;;;2.78;1.52;;;11.30;99.90;;;;;;5055752;28;20458;-37
2023/04/15 08:13:10;;;;;;;4.82;1.45;;;11.30;99.90;;;;;;5057491;28;20047;-35
2023/04/15 08:15:36;;;;;;;3.88;1.45;;;11.30;99.90;;;;;;5055090;28;20047;-39
2023/04/15 08:18:02;;;;;;;2.70;1.50;;;11.30;99.90;;;;;;5055208;28;20025;-36
2023/04/15 08:20:28;;;;;;;2.67;1.20;;;11.40;99.90;;;;;;5054659;28;20353;-39
2023/04/15 08:22:54;;;;;;;2.25;1.20;;;11.40;99.90;;;;;;5055990;28;20027;-39
2023/04/15 08:25:20;;;;;;;5.00;1.67;;;11.40;99.90;;;;;;5054492;28;20017;-36
2023/04/15 08:27:47;;;;;;;1.30;1.02;;;11.50;99.90;;;;;;5055039;28;20537;-39
2023/04/15 08:30:13;;;;;;;4.72;1.38;;;11.50;99.90;;;;;;5054651;28;20047;-35
2023/04/15 08:32:39;;;;;;;3.45;1.45;;;11.50;99.90;;;;;;5054119;28;20176;-37
2023/04/15 08:35:05;;;;;;;3.08;1.42;;;11.50;99.90;;;;;;5056007;28;20185;-36
2023/04/15 08:37:30;;;;;;;4.22;1.63;;;11.50;99.90;;;;;;5056312;28;20029;-37
2023/04/15 08:39:56;;;;;;;2.72;1.40;;;11.50;99.90;;;;;;5057329;28;20448;-37
2023/04/15 08:42:31;;;;;;;3.53;1.23;;;11.50;99.90;;;;;;5055615;28;20021;-38
2023/04/15 08:45:00;;;;;;;2.38;1.20;;;11.50;99.90;;;;;;5055738;28;20032;-36
2023/04/15 08:47:30;;;;;;;2.47;1.40;;;11.50;99.90;;;;;;5055037;28;20033;-38
2023/04/15 08:49:57;;;;;;;6.45;2.15;;;11.50;99.90;;;;;;5054114;28;20028;-38
2023/04/15 08:52:29;;;;;;;3.13;1.48;;;11.50;99.90;;;;;;5054440;28;20020;-35
2023/04/15 08:55:00;;;;;;;2.53;1.10;;;11.50;99.90;;;;;;5056518;28;20395;-38
2023/04/15 08:57:27;;;;;;;2.40;1.20;;;11.60;99.90;;;;;;5054008;28;20029;-37
2023/04/15 08:59:55;;;;;;;3.03;1.40;;;11.60;99.90;;;;;;5053861;28;20503;-36
2023/04/15 09:02:24;;;;;;;5.20;1.60;;;11.60;99.90;;;;;;5054121;28;20111;-36
2023/04/15 09:04:50;;;;;;;3.53;1.27;;;11.60;99.90;;;;;;5053730;28;20029;-38
2023/04/15 09:07:15;;;;;;;3.38;1.33;;;11.60;99.90;;;;;;5053277;28;20025;-37
2023/04/15 09:09:41;;;;;;;2.97;1.33;;;11.60;99.90;;;;;;5053552;28;20487;-39
2023/04/15 09:12:07;;;;;;;2.78;1.10;;;11.60;99.90;;;;;;5054634;28;20098;-36
2023/04/15 09:14:33;;;;;;;4.20;1.52;;;11.60;99.90;;;;;;5055116;28;20078;-39
2023/04/15 09:17:01;;;;;;;3.80;1.35;;;11.60;99.90;;;;;;5054569;28;20446;-36
2023/04/15 09:19:27;;;;;;;3.75;1.20;;;11.60;99.90;;;;;;5053584;28;20364;-37
2023/04/15 09:21:55;;;;;;;3.00;1.25;;;11.60;99.90;;;;;;5054126;28;20469;-40
2023/04/15 09:24:21;;;;;;;3.00;1.35;;;11.60;99.90;;;;;;5055565;28;20100;-35
2023/04/15 09:26:50;;;;;;;3.13;1.77;;;11.60;99.90;;;;;;5053543;28;20500;-35
2023/04/15 09:29:17;;;;;;;2.63;1.25;;;11.60;99.90;;;;;;5055613;28;20032;-40
2023/04/15 09:31:43;;;;;;;4.72;1.48;;;11.60;99.90;;;;;;5055204;28;20438;-38
2023/04/15 09:34:08;;;;;;;2.63;1.25;;;11.60;99.90;;;;;;5055026;28;20028;-37
2023/04/15 09:36:49;;;;;;;3.03;1.10;;;11.60;99.90;;;;;;5054505;28;20025;-39
2023/04/15 09:39:15;;;;;;;2.58;1.02;;;11.60;99.90;;;;;;5055018;28;20032;-36
2023/04/15 09:41:42;;;;;;;4.65;1.55;;;11.70;99.90;;;;;;5054269;28;20453;-40
2023/04/15 09:44:25;;;;;;;2.95;1.20;;;11.70;99.90;;;;;;5053771;28;20441;-37
2023/04/15 09:46:50;;;;;;;1.80;1.15;;;11.60;99.90;;;;;;5052649;28;20087;-37
2023/04/15 09:49:16;;;;;;;3.33;1.20;;;11.70;99.90;;;;;;5052827;28;20021;-37
2023/04/15 09:51:43;;;;;;;2.28;1.23;;;11.70;99.90;;;;;;5052840;28;20055;-37
2023/04/15 09:54:08;;;;;;;1.05;0.75;;;11.60;99.90;;;;;;5051589;28;20433;-37
2023/04/15 09:56:37;;;;;;;3.08;1.27;;;11.60;99.90;;;;;;5052269;28;20066;-37
2023/04/15 09:59:04;;;;;;;2.83;1.10;;;11.70;99.90;;;;;;5052543;28;20024;-38
2023/04/15 10:01:30;;;;;;;2.70;1.13;;;11.70;99.90;;;;;;5052676;28;20037;-39
2023/04/15 10:03:56;;;;;;;3.28;1.17;;;11.70;99.90;;;;;;5052457;28;20491;-38
2023/04/15 10:06:24;;;;;;;1.90;1.00;;;11.70;99.90;;;;;;5052055;28;20154;-37
2023/04/15 10:08:50;;;;;;;2.53;1.20;;;11.70;99.90;;;;;;5052563;28;20394;-37
2023/04/15 10:11:18;;;;;;;1.45;1.00;;;11.70;99.90;;;;;;5052376;28;20029;-38
2023/04/15 10:13:46;;;;;;;2.70;1.17;;;11.70;99.90;;;;;;5052254;28;20029;-37
2023/04/15 10:16:14;;;;;;;2.22;1.10;;;11.70;99.90;;;;;;5051237;28;20102;-37
2023/04/15 10:18:45;;;;;;;1.75;0.98;;;11.70;99.90;;;;;;5052562;28;20371;-37
2023/04/15 10:21:12;;;;;;;3.42;1.00;;;11.70;99.90;;;;;;5052417;28;20021;-38
2023/04/15 10:23:39;;;;;;;2.70;1.10;;;11.70;99.90;;;;;;5052231;28;20103;-37
2023/04/15 10:26:06;;;;;;;1.98;0.90;;;11.70;99.90;;;;;;5051502;28;20546;-37
2023/04/15 10:28:32;;;;;;;2.47;1.02;;;11.70;99.90;;;;;;5052275;28;20364;-37
2023/04/15 10:30:58;;;;;;;1.60;1.08;;;11.70;99.90;;;;;;5052238;28;20024;-37
2023/04/15 10:33:24;;;;;;;2.85;1.05;;;11.70;99.90;;;;;;5052208;28;20072;-37
2023/04/15 10:35:51;;;;;;;3.08;1.10;;;11.70;99.90;;;;;;5051770;28;20025;-37
2023/04/15 10:38:43;;;;;;;2.10;1.00;;;11.70;99.90;;;;;;5051793;28;20033;-37
2023/04/15 10:41:25;;;;;;;1.98;1.10;;;11.70;99.90;;;;;;5051826;28;20383;-37
2023/04/15 10:43:59;;;;;;;2.78;1.20;;;11.70;99.90;;;;;;5051730;28;20391;-38
2023/04/15 10:46:42;;;;;;;2.08;0.93;;;11.70;99.90;;;;;;5051222;28;20039;-38
2023/04/15 10:49:16;;;;;;;2.90;1.10;;;11.70;99.90;;;;;;5051674;28;20115;-37
2023/04/15 10:51:44;;;;;;;2.83;0.93;;;11.70;99.90;;;;;;5051954;28;20029;-37
2023/04/15 10:54:25;;;;;;;1.88;0.80;;;11.80;99.90;;;;;;5051693;28;20383;-38
2023/04/15 10:57:07;;;;;;;2.88;0.90;;;11.80;99.90;;;;;;5051062;28;20104;-37
2023/04/15 10:59:36;;;;;;;1.92;1.10;;;11.70;99.90;;;;;;5051473;28;20150;-38
2023/04/15 11:02:06;;;;;;;2.45;1.15;;;11.70;99.90;;;;;;5051381;28;20024;-37
2023/04/15 11:04:56;;;;;;;3.08;1.02;;;11.80;99.90;;;;;;5051429;28;20025;-37
2023/04/15 11:07:40;;;;;;;2.45;1.00;;;11.80;99.90;;;;;;5050936;28;20025;-38
2023/04/15 11:10:12;;;;;;;2.42;1.10;;;11.70;99.90;;;;;;5051239;28;20033;-38
2023/04/15 11:12:38;;;;;;;2.65;1.02;;;11.80;99.90;;;;;;5051191;28;20025;-37
2023/04/15 11:15:25;;;;;;;2.40;1.02;;;11.80;99.90;;;;;;5051186;28;20037;-38
2023/04/15 11:17:51;;;;;;;1.70;0.80;;;11.80;99.90;;;;;;5050835;28;20021;-37
2023/04/15 11:20:17;;;;;;;2.00;0.80;;;11.80;99.90;;;;;;5051103;28;20033;-37
2023/04/15 11:22:51;;;;;;;3.63;1.35;;;11.80;99.90;;;;;;5051132;28;20032;-37
2023/04/15 11:25:23;;;;;;;2.85;0.98;;;11.80;99.90;;;;;;5051025;28;20052;-38
2023/04/15 11:27:50;;;;;;;2.25;0.93;;;11.80;99.90;;;;;;5051161;28;20142;-38
2023/04/15 11:30:22;;;;;;;2.15;0.95;;;11.80;99.90;;;;;;5051168;28;20029;-38
2023/04/15 11:32:51;;;;;;;2.70;0.82;;;11.80;99.90;;;;;;5050888;28;20044;-37
2023/04/15 11:35:17;;;;;;;2.67;1.08;;;11.80;99.90;;;;;;5050954;28;20048;-37
2023/04/15 11:37:48;;;;;;;3.20;1.33;;;11.80;99.90;;;;;;5050413;28;20021;-37
2023/04/15 11:40:16;;;;;;;2.35;1.00;;;11.80;99.90;;;;;;5050942;28;20032;-37
2023/04/15 11:42:43;;;;;;;3.50;1.10;;;11.80;99.90;;;;;;5050881;28;20027;-37
2023/04/15 11:45:10;;;;;;;4.28;1.08;;;11.80;99.90;;;;;;5050799;28;20041;-37
2023/04/15 11:47:36;;;;;;;2.28;0.90;;;11.80;99.90;;;;;;5050327;28;20406;-37
2023/04/15 11:50:19;;;;;;;4.35;1.15;;;11.80;99.90;;;;;;5050882;28;20032;-37
2023/04/15 11:52:56;;;;;;;2.08;0.93;;;11.80;99.90;;;;;;5050731;28;20048;-37
2023/04/15 11:55:23;;;;;;;3.10;1.00;;;11.80;99.90;;;;;;5050739;28;20025;-37
2023/04/15 11:57:50;;;;;;;3.70;1.00;;;11.80;99.90;;;;;;5050167;28;20025;-37
2023/04/15 12:00:16;;;;;;;2.17;0.90;;;11.80;99.90;;;;;;5051145;28;20031;-37
2023/04/15 12:02:42;;;;;;;1.30;0.77;;;11.90;99.90;;;;;;5050727;28;20120;-37
2023/04/15 12:05:08;;;;;;;3.65;1.30;;;11.90;99.90;;;;;;5050722;28;20048;-37
2023/04/15 12:07:56;;;;;;;2.28;0.98;;;11.90;99.90;;;;;;5050264;28;20387;-37
2023/04/15 12:10:24;;;;;;;2.35;1.10;;;11.90;99.90;;;;;;5050617;28;20102;-37
2023/04/15 12:12:51;;;;;;;2.50;1.05;;;11.90;99.90;;;;;;5050574;28;20658;-37
2023/04/15 12:15:22;;;;;;;2.58;1.27;;;11.90;99.90;;;;;;5051071;28;20029;-37
2023/04/15 12:17:47;;;;;;;4.28;0.93;;;11.90;99.90;;;;;;5050660;28;20021;-37
2023/04/15 12:20:13;;;;;;;2.55;1.13;;;11.90;99.90;;;;;;5051081;28;20036;-37
2023/04/15 12:22:38;;;;;;;3.78;1.13;;;11.90;99.90;;;;;;5051402;28;20459;-37
2023/04/15 12:25:04;;;;;;;2.90;1.02;;;11.90;99.90;;;;;;5050395;28;20108;-37
2023/04/15 12:27:31;;;;;;;2.97;1.27;;;11.90;99.90;;;;;;5049967;28;20059;-37
2023/04/15 12:30:04;;;;;;;1.80;1.00;;;11.90;99.90;;;;;;5050509;28;20024;-37
2023/04/15 12:32:34;;;;;;;4.25;1.05;;;11.90;99.90;;;;;;5050587;28;20096;-37
2023/04/15 12:35:00;;;;;;;4.05;1.30;;;11.90;99.90;;;;;;5050666;28;20029;-37
2023/04/15 12:37:26;;;;;;;3.50;1.25;;;12.00;99.90;;;;;;5049786;28;20025;-37
2023/04/15 12:39:52;;;;;;;4.28;1.38;;;12.00;99.90;;;;;;5052051;28;20021;-37
2023/04/15 12:42:18;;;;;;;3.35;1.20;;;11.90;99.90;;;;;;5054357;28;20082;-37
2023/04/15 12:44:45;;;;;;;3.28;1.15;;;12.00;99.90;;;;;;5054250;28;20033;-37
2023/04/15 12:47:11;;;;;;;2.40;1.20;;;11.90;99.90;;;;;;5053602;28;20367;-37